Time;durP1;ratioP1;P1;durP2;ratioP2;P2;SDS_P1;SDS_P2;PMS_P1;PMS_P2;Temp;Humidity;BMP_temperature;BMP_pressure;BME280_temperature;BME280_humidity;BME280_pressure;Samples;Min_cycle;Max_cycle;Signal;HPM_P1;HPM_P2
2021/09/01 00:00:18;;;;;;;;;23.75;19.50;;;;;23.76;48.83;101805.22;6252171;22;45257;-83
2021/09/01 00:02:44;;;;;;;;;28.00;26.50;;;;;23.69;48.32;101786.72;6251576;22;45394;-83
2021/09/01 00:05:09;;;;;;;;;24.50;19.75;;;;;23.69;48.88;101793.84;6251779;22;52642;-82
2021/09/01 00:07:35;;;;;;;;;26.00;24.00;;;;;23.72;48.91;101799.13;6226007;22;46765;-83
2021/09/01 00:10:00;;;;;;;;;24.50;20.00;;;;;23.73;48.65;101811.53;6251999;22;45263;-82
2021/09/01 00:12:27;;;;;;;;;22.75;22.75;;;;;23.66;49.10;101802.81;6251537;22;45213;-82
2021/09/01 00:14:53;;;;;;;;;27.50;24.50;;;;;23.66;48.82;101808.16;6252578;22;45293;-82
2021/09/01 00:17:19;;;;;;;;;24.75;21.75;;;;;23.64;48.64;101804.66;6251107;22;48220;-82
2021/09/01 00:19:44;;;;;;;;;30.75;26.50;;;;;23.64;48.67;101809.13;6251637;22;45195;-82
2021/09/01 00:22:10;;;;;;;;;22.50;21.50;;;;;23.62;48.99;101813.59;6225911;22;45465;-82
2021/09/01 00:24:35;;;;;;;;;23.00;18.75;;;;;23.56;49.07;101811.97;6251451;22;45426;-82
2021/09/01 00:27:00;;;;;;;;;24.75;22.75;;;;;23.54;49.12;101811.09;6226083;22;46807;-82
2021/09/01 00:29:26;;;;;;;;;23.50;21.75;;;;;23.55;49.30;101812.00;6225375;22;66142;-82
2021/09/01 00:31:51;;;;;;;;;21.75;21.75;;;;;23.55;49.80;101814.66;6279487;22;45100;-83
2021/09/01 00:34:17;;;;;;;;;24.50;21.00;;;;;23.52;49.42;101809.41;6226097;22;45529;-82
2021/09/01 00:36:42;;;;;;;;;23.50;20.50;;;;;23.52;49.94;101807.59;6279015;22;45086;-83
2021/09/01 00:39:08;;;;;;;;;23.00;21.00;;;;;23.52;49.81;101801.41;6225944;22;45306;-83
2021/09/01 00:41:33;;;;;;;;;22.00;19.75;;;;;23.53;50.37;101806.69;6279569;22;45156;-82
2021/09/01 00:44:20;;;;;;;;;23.00;20.75;;;;;23.52;49.31;101799.63;6251030;22;52263;-84
2021/09/01 00:46:45;;;;;;;;;25.75;22.50;;;;;23.50;49.86;101804.13;6251490;22;45417;-82
2021/09/01 00:49:12;;;;;;;;;23.75;21.00;;;;;23.46;50.12;101805.13;6200260;22;45328;-83
2021/09/01 00:51:37;;;;;;;;;24.50;24.00;;;;;23.49;49.58;101818.38;6252072;22;45354;-82
2021/09/01 00:54:03;;;;;;;;;21.50;20.25;;;;;23.49;50.03;101812.16;6278802;22;45355;-82
2021/09/01 00:56:28;;;;;;;;;22.75;20.00;;;;;23.50;50.02;101806.78;6251237;22;59192;-81
2021/09/01 00:58:54;;;;;;;;;19.75;18.50;;;;;23.48;49.79;101805.09;6250585;22;67717;-82
2021/09/01 01:01:22;;;;;;;;;21.50;20.00;;;;;23.48;50.01;101813.97;6226107;22;45570;-82
2021/09/01 01:03:49;;;;;;;;;24.50;18.25;;;;;23.47;50.46;101806.00;6251811;22;45198;-82
2021/09/01 01:06:24;;;;;;;;;21.25;19.00;;;;;23.44;50.16;101804.28;6226159;22;48135;-82
2021/09/01 01:08:50;;;;;;;;;25.25;23.50;;;;;23.45;50.10;101808.69;6226006;22;45186;-82
2021/09/01 01:11:15;;;;;;;;;19.25;17.50;;;;;23.46;50.42;101814.91;6226548;22;45265;-83
2021/09/01 01:13:44;;;;;;;;;19.00;18.00;;;;;23.43;49.93;101802.53;6251674;22;45262;-82
2021/09/01 01:16:11;;;;;;;;;23.25;21.00;;;;;23.39;50.27;101806.22;6251146;22;46848;-83
2021/09/01 01:18:37;;;;;;;;;25.00;21.25;;;;;23.45;50.41;101811.34;6226427;22;45213;-82
2021/09/01 01:21:02;;;;;;;;;20.25;18.00;;;;;23.44;50.21;101808.72;6251852;22;45256;-83
2021/09/01 01:23:27;;;;;;;;;19.50;17.50;;;;;23.41;50.38;101801.72;6278066;22;63647;-83
2021/09/01 01:25:53;;;;;;;;;24.00;21.50;;;;;23.42;50.64;101808.78;6225935;22;45816;-83
2021/09/01 01:28:18;;;;;;;;;27.50;25.00;;;;;23.39;50.81;101804.41;6226187;22;45341;-83
2021/09/01 01:30:44;;;;;;;;;22.50;20.75;;;;;23.36;50.16;101792.97;6224598;22;45261;-83
2021/09/01 01:33:12;;;;;;;;;24.25;20.25;;;;;23.37;50.03;101794.72;6251026;22;45327;-83
2021/09/01 01:35:39;;;;;;;;;18.75;16.50;;;;;23.36;50.12;101806.28;6278770;22;45969;-83
2021/09/01 01:38:11;;;;;;;;;25.50;21.75;;;;;23.36;50.00;101799.16;6226126;22;45240;-83
2021/09/01 01:40:37;;;;;;;;;21.25;19.25;;;;;23.35;50.77;101808.06;6226431;22;45309;-83
2021/09/01 01:43:03;;;;;;;;;27.50;24.25;;;;;23.36;50.91;101800.94;6250992;22;45321;-83
2021/09/01 01:45:58;;;;;;;;;20.50;18.25;;;;;23.29;50.19;101796.72;6225599;22;47968;-83
2021/09/01 01:48:24;;;;;;;;;22.00;19.00;;;;;23.26;50.79;101792.34;6275742;22;45142;-83
2021/09/01 01:50:49;;;;;;;;;21.00;19.75;;;;;23.20;50.92;101773.00;6250691;22;45209;-83
2021/09/01 01:53:23;;;;;;;;;22.75;21.75;;;;;23.26;50.48;101781.69;6251610;22;45176;-83
2021/09/01 01:55:51;;;;;;;;;25.25;20.75;;;;;23.22;50.98;101777.38;6226526;22;47854;-83
2021/09/01 01:58:17;;;;;;;;;22.25;21.00;;;;;23.35;50.28;101796.53;6224458;22;56413;-83
2021/09/01 02:00:42;;;;;;;;;32.50;22.50;;;;;23.22;50.15;101776.50;6251082;22;45764;-83
2021/09/01 02:03:08;;;;;;;;;23.50;21.50;;;;;23.27;50.34;101788.75;6226215;22;45187;-83
2021/09/01 02:05:33;;;;;;;;;23.00;20.75;;;;;23.27;50.59;101793.22;6225892;22;45952;-83
2021/09/01 02:07:58;;;;;;;;;24.25;20.50;;;;;23.26;51.22;101805.66;6236900;22;45379;-82
2021/09/01 02:10:24;;;;;;;;;23.00;22.25;;;;;23.22;50.98;101798.66;6252865;22;45353;-82
2021/09/01 02:12:49;;;;;;;;;22.25;20.00;;;;;23.24;50.62;101811.94;6226342;22;45275;-82
2021/09/01 02:15:15;;;;;;;;;26.50;24.75;;;;;23.21;50.73;101809.38;6224598;22;65659;-82
2021/09/01 02:17:40;;;;;;;;;26.75;24.75;;;;;23.22;51.07;101809.31;6225770;22;45209;-82
2021/09/01 02:20:06;;;;;;;;;22.75;22.25;;;;;23.22;51.17;101817.31;6226292;22;45309;-82
2021/09/01 02:22:32;;;;;;;;;25.50;22.25;;;;;23.22;51.27;101816.44;6225672;22;45456;-82
2021/09/01 02:24:57;;;;;;;;;25.00;21.00;;;;;23.22;51.42;101819.97;6224350;22;60831;-82
2021/09/01 02:27:23;;;;;;;;;24.25;20.50;;;;;23.21;51.29;101814.69;6200167;22;45234;-82
2021/09/01 02:29:48;;;;;;;;;26.00;24.00;;;;;23.22;51.36;101819.97;6199564;22;45358;-82
2021/09/01 02:32:13;;;;;;;;;25.50;25.25;;;;;23.22;50.85;101829.75;6224725;22;65225;-82
2021/09/01 02:34:39;;;;;;;;;26.75;24.00;;;;;23.23;50.74;101815.53;6225064;22;47116;-82
2021/09/01 02:37:04;;;;;;;;;21.00;19.00;;;;;23.23;51.44;101818.19;6200084;22;45219;-83
2021/09/01 02:39:30;;;;;;;;;21.75;19.50;;;;;23.24;51.02;101822.59;6250718;22;55167;-83
2021/09/01 02:41:55;;;;;;;;;23.75;22.00;;;;;23.24;51.24;101814.59;6224036;22;64399;-82
2021/09/01 02:44:20;;;;;;;;;21.00;19.75;;;;;23.23;50.92;101818.19;6224320;22;58821;-82
2021/09/01 02:46:46;;;;;;;;;24.75;22.00;;;;;23.21;50.78;101817.38;6225236;22;49057;-82
2021/09/01 02:49:11;;;;;;;;;25.50;21.50;;;;;23.18;50.69;101812.09;6224690;22;55910;-83
2021/09/01 02:51:37;;;;;;;;;23.50;22.75;;;;;23.16;51.34;101813.94;6224328;22;45751;-82
2021/09/01 02:54:02;;;;;;;;;19.50;19.50;;;;;23.17;51.04;101818.34;6223624;22;62241;-82
2021/09/01 02:56:28;;;;;;;;;24.75;22.00;;;;;23.16;50.95;101820.13;6224404;22;45839;-82
2021/09/01 02:58:53;;;;;;;;;30.50;24.00;;;;;23.18;51.06;101815.63;6225541;22;45271;-82
2021/09/01 03:01:18;;;;;;;;;24.00;22.75;;;;;23.19;50.97;101821.81;6225111;22;64804;-80
2021/09/01 03:03:44;;;;;;;;;24.25;21.75;;;;;23.09;50.88;101815.88;6226020;22;46537;-81
2021/09/01 03:06:09;;;;;;;;;26.00;23.00;;;;;23.12;50.74;101819.34;6251071;22;62226;-81
2021/09/01 03:08:35;;;;;;;;;29.75;27.50;;;;;23.08;50.92;101820.31;6252578;22;45297;-80
2021/09/01 03:11:00;;;;;;;;;26.00;23.00;;;;;23.08;51.63;101817.66;6279390;22;50529;-81
2021/09/01 03:13:25;;;;;;;;;23.00;18.50;;;;;23.10;51.40;101823.81;6251263;22;61688;-80
2021/09/01 03:15:51;;;;;;;;;26.00;23.25;;;;;23.09;51.17;101816.75;6225389;22;62710;-81
2021/09/01 03:18:16;;;;;;;;;25.75;22.50;;;;;23.11;50.96;101816.72;6226254;22;49008;-80
2021/09/01 03:20:42;;;;;;;;;24.00;22.50;;;;;23.09;50.75;101818.53;6251425;22;51872;-80
2021/09/01 03:23:07;;;;;;;;;26.75;21.00;;;;;22.97;51.63;101801.09;6278944;22;63376;-80
2021/09/01 03:25:32;;;;;;;;;25.75;25.00;;;;;23.07;51.19;101812.38;6251995;22;45536;-80
2021/09/01 03:28:01;;;;;;;;;19.75;18.75;;;;;23.09;51.79;101818.53;6279356;22;45326;-80
2021/09/01 03:30:27;;;;;;;;;22.50;21.00;;;;;23.09;51.07;101806.09;6279583;22;45162;-80
2021/09/01 03:32:52;;;;;;;;;20.75;19.00;;;;;23.09;51.17;101811.41;6251649;22;48356;-80
2021/09/01 03:35:18;;;;;;;;;24.75;21.00;;;;;23.02;51.72;101792.97;6252578;22;45240;-81
2021/09/01 03:37:43;;;;;;;;;21.00;19.25;;;;;23.07;51.18;101807.06;6279547;22;45646;-81
2021/09/01 03:40:09;;;;;;;;;21.00;20.75;;;;;23.06;51.11;101798.19;6252271;22;45357;-81
2021/09/01 03:42:34;;;;;;;;;21.25;20.75;;;;;23.03;51.36;101795.63;6226037;22;46896;-81
2021/09/01 03:44:59;;;;;;;;;21.50;18.75;;;;;23.03;51.34;101800.94;6226299;22;52176;-81
2021/09/01 03:47:25;;;;;;;;;22.50;21.00;;;;;23.01;51.21;101810.72;6201284;22;45270;-80
2021/09/01 03:49:50;;;;;;;;;25.25;23.25;;;;;23.02;51.24;101804.53;6227176;22;45362;-80
2021/09/01 03:52:16;;;;;;;;;26.00;24.50;;;;;23.03;51.36;101813.38;6251497;22;59601;-81
2021/09/01 03:54:41;;;;;;;;;22.50;19.75;;;;;23.02;51.31;101817.84;6226591;22;45641;-81
2021/09/01 03:57:06;;;;;;;;;25.25;22.25;;;;;23.02;51.17;101809.84;6226406;22;54037;-80
2021/09/01 03:59:32;;;;;;;;;22.50;22.50;;;;;23.02;50.95;101808.94;6252207;22;56130;-81
2021/09/01 04:01:57;;;;;;;;;19.25;19.25;;;;;23.01;51.06;101809.84;6226454;22;47291;-81
2021/09/01 04:04:23;;;;;;;;;22.25;18.75;;;;;23.02;51.34;101811.59;6251472;22;61260;-80
2021/09/01 04:06:49;;;;;;;;;22.50;19.50;;;;;22.99;51.43;101807.25;6251863;22;45374;-81
2021/09/01 04:09:14;;;;;;;;;23.25;20.25;;;;;23.01;51.28;101804.53;6225109;22;61037;-81
2021/09/01 04:11:39;;;;;;;;;21.75;21.75;;;;;23.00;51.60;101802.78;6225818;22;50347;-81
2021/09/01 04:14:05;;;;;;;;;24.00;23.00;;;;;23.02;50.88;101814.28;6226591;22;45169;-81
2021/09/01 04:16:30;;;;;;;;;22.00;20.00;;;;;22.98;50.76;101807.28;6225378;22;60454;-81
2021/09/01 04:18:55;;;;;;;;;20.50;19.50;;;;;23.00;51.00;101818.75;6251272;22;61471;-81
2021/09/01 04:21:21;;;;;;;;;23.00;19.50;;;;;23.01;50.63;101817.84;6226188;22;47237;-81
2021/09/01 04:23:46;;;;;;;;;24.25;21.00;;;;;23.01;51.13;101813.41;6226135;22;45174;-81
2021/09/01 04:26:12;;;;;;;;;22.00;19.00;;;;;22.99;51.39;101804.56;6251600;22;47156;-82
2021/09/01 04:28:37;;;;;;;;;22.75;22.50;;;;;22.98;50.56;101804.63;6252067;22;45348;-81
2021/09/01 04:31:05;;;;;;;;;23.75;21.00;;;;;22.96;51.20;101810.00;6220156;22;48338;-81
2021/09/01 04:33:31;;;;;;;;;19.50;19.00;;;;;22.92;51.02;101808.31;6221603;22;45272;-81
2021/09/01 04:35:57;;;;;;;;;24.25;21.75;;;;;22.94;51.25;101819.81;6221053;22;45329;-81
2021/09/01 04:38:22;;;;;;;;;20.50;20.00;;;;;22.88;51.52;101811.97;6220810;22;45372;-81
2021/09/01 04:40:48;;;;;;;;;27.25;20.50;;;;;22.88;51.75;101814.63;6195482;22;47042;-82
2021/09/01 04:43:13;;;;;;;;;23.25;23.00;;;;;22.92;51.50;101831.38;6221258;22;45340;-81
2021/09/01 04:45:38;;;;;;;;;23.75;21.50;;;;;22.89;50.93;101827.03;6246114;22;60400;-81
2021/09/01 04:48:04;;;;;;;;;19.50;17.25;;;;;22.89;51.66;101828.81;6221419;22;45245;-81
2021/09/01 04:50:29;;;;;;;;;20.25;20.25;;;;;22.86;51.38;101828.91;6246637;22;48930;-82
2021/09/01 04:52:55;;;;;;;;;27.25;25.25;;;;;22.87;51.20;101826.19;6246081;22;47176;-82
2021/09/01 04:55:20;;;;;;;;;24.25;21.00;;;;;22.86;51.21;101829.78;6220463;22;45248;-82
2021/09/01 04:57:45;;;;;;;;;21.50;20.75;;;;;22.88;50.99;101840.38;6219969;22;60409;-81
2021/09/01 05:00:14;;;;;;;;;24.50;22.00;;;;;22.85;50.99;101833.34;6246058;22;60173;-82
2021/09/01 05:02:40;;;;;;;;;20.25;17.00;;;;;22.84;51.30;101831.53;6248383;22;45196;-82
2021/09/01 05:05:06;;;;;;;;;24.25;19.75;;;;;22.84;51.72;101820.91;6247028;22;45626;-82
2021/09/01 05:07:31;;;;;;;;;23.75;22.00;;;;;22.86;51.65;101827.13;6220793;22;45358;-82
2021/09/01 05:09:57;;;;;;;;;25.00;23.50;;;;;22.84;51.66;101815.56;6247972;22;45266;-82
2021/09/01 05:12:26;;;;;;;;;23.25;20.75;;;;;22.84;51.07;101820.91;6245809;22;54845;-81
2021/09/01 05:14:52;;;;;;;;;20.00;18.00;;;;;22.84;51.18;101820.91;6246368;22;45149;-82
2021/09/01 05:17:17;;;;;;;;;23.50;20.50;;;;;22.86;51.43;101824.44;6224309;22;45222;-80
2021/09/01 05:19:43;;;;;;;;;22.75;19.00;;;;;22.82;51.25;101820.06;6224509;22;45142;-81
2021/09/01 05:22:10;;;;;;;;;23.50;19.75;;;;;22.84;51.97;101821.81;6219693;22;57035;-82
2021/09/01 05:24:40;;;;;;;;;20.75;19.25;;;;;22.87;51.31;101830.66;6221826;22;45236;-83
2021/09/01 05:27:10;;;;;;;;;20.50;19.50;;;;;22.79;51.51;101810.38;6220872;22;45378;-84
2021/09/01 05:29:39;;;;;;;;;22.00;21.00;;;;;22.82;51.63;101817.41;6219996;22;47917;-83
2021/09/01 05:32:04;;;;;;;;;25.75;22.75;;;;;22.86;50.49;101828.91;6221063;22;45283;-83
2021/09/01 05:34:30;;;;;;;;;25.25;23.00;;;;;22.80;50.60;101828.09;6220662;22;45198;-85
2021/09/01 05:36:55;;;;;;;;;24.00;19.50;;;;;22.80;50.70;101844.06;6219688;22;62276;-82
2021/09/01 05:39:20;;;;;;;;;22.75;19.50;;;;;22.77;50.45;101832.63;6246437;22;45214;-83
2021/09/01 05:41:46;;;;;;;;;21.50;20.25;;;;;22.78;50.83;101842.34;6221155;22;45197;-85
2021/09/01 05:44:11;;;;;;;;;19.50;15.50;;;;;22.74;50.65;101844.19;6220232;22;64663;-87
2021/09/01 05:46:36;;;;;;;;;23.75;21.50;;;;;22.81;50.15;101852.91;6246197;22;54631;-82
2021/09/01 05:49:02;;;;;;;;;26.25;24.00;;;;;22.83;50.40;101861.75;6246158;22;46058;-83
2021/09/01 05:51:27;;;;;;;;;24.75;20.25;;;;;22.79;50.12;101857.41;6246076;22;56729;-83
2021/09/01 05:53:53;;;;;;;;;21.00;19.25;;;;;22.68;49.93;101838.16;6230034;22;45229;-82
2021/09/01 05:56:21;;;;;;;;;25.25;21.75;;;;;22.75;50.37;101847.72;6246158;22;45368;-82
2021/09/01 05:58:52;;;;;;;;;25.00;21.25;;;;;22.82;50.27;101854.66;6247793;22;46506;-81
2021/09/01 06:01:17;;;;;;;;;25.50;23.50;;;;;22.77;51.62;101848.59;6246318;22;45115;-84
2021/09/01 06:03:44;;;;;;;;;26.25;20.75;;;;;22.74;51.42;101840.66;6247066;22;45601;-86
2021/09/01 06:06:09;;;;;;;;;23.00;19.75;;;;;22.90;50.71;101865.16;6220517;22;45632;-89
2021/09/01 06:08:35;;;;;;;;;23.50;18.25;;;;;22.87;50.29;101847.50;6219649;22;46781;-89
2021/09/01 06:11:02;;;;;;;;;26.75;25.00;;;;;22.93;50.65;101854.44;6220929;22;45376;-85
2021/09/01 06:13:27;;;;;;;;;32.75;29.25;;;;;22.96;50.06;101849.94;6221218;22;45340;-87
2021/09/01 06:15:53;;;;;;;;;26.25;24.00;;;;;23.04;49.41;101855.94;6220612;22;45242;-87
2021/09/01 06:18:19;;;;;;;;;26.50;21.50;;;;;23.04;49.12;101844.41;6220578;22;45317;-79
2021/09/01 06:20:44;;;;;;;;;22.25;20.00;;;;;23.02;49.28;101839.13;6220398;22;48368;-81
2021/09/01 06:23:09;;;;;;;;;20.25;19.50;;;;;23.02;49.89;101841.81;6220684;22;45113;-84
2021/09/01 06:25:35;;;;;;;;;23.00;20.25;;;;;23.05;49.49;101847.03;6246044;22;45360;-83
2021/09/01 06:28:06;;;;;;;;;23.00;21.25;;;;;23.04;49.42;101841.75;6246408;22;45267;-84
2021/09/01 06:30:31;;;;;;;;;26.50;23.50;;;;;23.01;49.02;101831.16;6246833;22;45225;-85
2021/09/01 06:32:57;;;;;;;;;27.00;22.75;;;;;23.04;49.70;101839.97;6221268;22;45357;-89
2021/09/01 06:35:22;;;;;;;;;23.25;20.75;;;;;22.98;49.35;101832.13;6220989;22;68774;-84
2021/09/01 06:37:49;;;;;;;;;24.75;21.25;;;;;23.03;49.34;101843.53;6221598;22;47158;-82
2021/09/01 06:40:16;;;;;;;;;24.75;23.25;;;;;23.03;49.57;101843.53;6221856;22;45194;-82
2021/09/01 06:42:41;;;;;;;;;19.75;18.50;;;;;23.07;50.27;101836.34;6225130;22;45205;-88
2021/09/01 06:45:08;;;;;;;;;20.75;19.00;;;;;23.06;49.67;101837.25;6233219;22;45196;-85
2021/09/01 06:47:42;;;;;;;;;22.75;19.00;;;;;23.11;49.93;101846.03;6246773;22;47483;-90
2021/09/01 06:50:09;;;;;;;;;22.50;22.00;;;;;23.15;49.53;101849.47;6272226;22;45988;-87
2021/09/01 06:52:34;;;;;;;;;25.25;22.75;;;;;23.21;49.64;101844.00;6248090;22;45398;-88
2021/09/01 06:55:00;;;;;;;;;29.25;25.25;;;;;23.23;48.56;101844.81;6248458;22;45293;-85
2021/09/01 06:57:25;;;;;;;;;22.50;21.50;;;;;23.19;48.54;101844.00;6246607;22;47177;-83
2021/09/01 06:59:50;;;;;;;;;23.00;19.25;;;;;23.18;48.89;101852.03;6221155;22;45227;-84
2021/09/01 07:02:16;;;;;;;;;22.25;19.50;;;;;23.20;50.01;101851.13;6248454;22;51730;-85
2021/09/01 07:04:41;;;;;;;;;22.50;18.25;;;;;23.23;48.97;101852.81;6246372;22;54405;-85
2021/09/01 07:07:07;;;;;;;;;23.00;21.75;;;;;23.20;49.46;101839.59;6246523;22;51469;-84
2021/09/01 07:09:32;;;;;;;;;20.50;18.25;;;;;23.26;49.26;101847.41;6220505;22;55551;-85
2021/09/01 07:11:57;;;;;;;;;18.75;12.75;;;;;23.29;49.92;101848.22;6221093;22;45304;-86
2021/09/01 07:14:23;;;;;;;;;30.25;23.25;;;;;23.31;50.96;101843.72;6246257;22;62939;-84
2021/09/01 07:16:48;;;;;;;;;21.50;18.75;;;;;23.29;50.46;101834.88;6221194;22;46064;-82
2021/09/01 07:19:14;;;;;;;;;22.00;18.00;;;;;23.34;50.06;101826.75;6221448;22;45284;-84
2021/09/01 07:21:39;;;;;;;;;21.00;17.75;;;;;23.37;50.84;101837.34;6248735;22;49314;-84
2021/09/01 07:24:04;;;;;;;;;29.00;24.50;;;;;23.41;52.80;101841.69;6246010;22;46962;-86
2021/09/01 07:26:30;;;;;;;;;22.25;20.75;;;;;23.43;50.93;101834.50;6225334;22;56750;-86
2021/09/01 07:28:55;;;;;;;;;23.25;21.00;;;;;23.48;52.42;101829.94;6223525;22;45154;-86
2021/09/01 07:31:21;;;;;;;;;22.75;20.75;;;;;23.49;51.16;101829.03;6226187;22;45185;-85
2021/09/01 07:33:47;;;;;;;;;26.00;22.25;;;;;23.45;50.98;101822.00;6279605;22;45437;-86
2021/09/01 07:36:12;;;;;;;;;23.50;19.25;;;;;23.42;51.33;101819.44;6226619;22;45817;-86
2021/09/01 07:38:37;;;;;;;;;24.50;18.75;;;;;23.45;51.74;101834.47;6278604;22;54156;-85
2021/09/01 07:41:03;;;;;;;;;24.00;19.50;;;;;23.47;51.32;101830.00;6251783;22;45126;-84
2021/09/01 07:43:34;;;;;;;;;17.75;16.50;;;;;23.42;50.72;101835.44;6225494;22;49340;-84
2021/09/01 07:45:59;;;;;;;;;19.00;17.25;;;;;23.35;51.11;101826.72;6227074;22;45582;-86
2021/09/01 07:48:24;;;;;;;;;21.50;19.00;;;;;23.38;50.60;101828.44;6226475;22;45161;-83
2021/09/01 07:50:51;;;;;;;;;22.50;20.75;;;;;23.33;50.95;101833.88;6252362;22;45194;-84
2021/09/01 07:53:16;;;;;;;;;20.75;18.25;;;;;23.27;50.68;101820.72;6226824;22;45154;-86
2021/09/01 07:55:42;;;;;;;;;19.00;18.00;;;;;23.31;50.53;101848.16;6250911;22;63722;-85
2021/09/01 07:58:07;;;;;;;;;25.25;22.25;;;;;23.20;49.87;101828.94;6250714;22;61726;-86
2021/09/01 08:00:36;;;;;;;;;20.25;19.25;;;;;23.24;49.99;101841.25;6199856;22;45315;-83
2021/09/01 08:03:01;;;;;;;;;22.75;20.25;;;;;23.12;49.65;101826.47;6279137;22;49468;-88
2021/09/01 08:05:27;;;;;;;;;23.00;19.50;;;;;23.11;49.40;101832.72;6227473;22;45896;-87
2021/09/01 08:07:52;;;;;;;;;24.00;22.25;;;;;23.05;50.17;101824.88;6200028;22;45274;-89
2021/09/01 08:10:17;;;;;;;;;20.75;19.25;;;;;23.05;49.92;101831.06;6227143;22;45293;-85
2021/09/01 08:12:43;;;;;;;;;24.00;21.50;;;;;23.05;49.76;101832.84;6252535;22;45439;-85
2021/09/01 08:15:09;;;;;;;;;30.25;25.00;;;;;23.09;50.02;101834.50;6252064;22;45329;-89
2021/09/01 08:17:35;;;;;;;;;25.75;22.00;;;;;23.01;50.02;101828.50;6226336;22;45270;-92
2021/09/01 08:20:00;;;;;;;;;23.25;19.25;;;;;23.00;49.88;101826.75;6226695;22;45202;-85
2021/09/01 08:22:25;;;;;;;;;24.00;21.50;;;;;23.07;50.38;101839.00;6252081;22;45107;-87
2021/09/01 08:24:51;;;;;;;;;23.50;20.50;;;;;23.01;50.68;101826.72;6225802;22;47082;-84
2021/09/01 08:27:16;;;;;;;;;20.00;19.00;;;;;23.08;50.32;101846.94;6279112;22;45152;-86
2021/09/01 08:29:42;;;;;;;;;20.50;18.75;;;;;23.01;50.58;101824.03;6251529;22;45554;-86
2021/09/01 08:32:07;;;;;;;;;18.00;17.50;;;;;23.06;50.25;101840.78;6278941;22;57054;-86
2021/09/01 08:34:33;;;;;;;;;26.25;24.00;;;;;23.00;50.02;101827.63;6225840;22;47185;-86
2021/09/01 08:37:02;;;;;;;;;20.50;20.25;;;;;23.03;50.90;101838.22;6227065;22;45119;-86
2021/09/01 08:39:28;;;;;;;;;27.25;21.25;;;;;23.04;50.69;101831.09;6255582;22;45360;-84
2021/09/01 08:41:53;;;;;;;;;27.00;22.50;;;;;23.01;50.30;101826.72;6225469;22;59569;-85
2021/09/01 08:44:18;;;;;;;;;23.00;20.25;;;;;23.10;50.88;101839.78;6202696;22;47153;-84
2021/09/01 08:46:45;;;;;;;;;22.75;20.00;;;;;23.11;50.71;101836.25;6224645;22;66972;-85
2021/09/01 08:49:12;;;;;;;;;26.00;21.75;;;;;23.14;51.04;101840.59;6251224;22;45232;-87
2021/09/01 08:51:37;;;;;;;;;22.75;18.25;;;;;23.17;50.96;101848.50;6225756;22;45706;-86
2021/09/01 08:54:03;;;;;;;;;27.00;22.25;;;;;23.16;50.60;101844.09;6276690;22;49162;-85
2021/09/01 08:56:28;;;;;;;;;22.75;20.25;;;;;23.12;50.91;101838.00;6224395;22;60227;-87
2021/09/01 08:58:57;;;;;;;;;28.00;24.25;;;;;23.16;50.46;101843.22;6277771;22;45077;-87
2021/09/01 09:01:48;;;;;;;;;22.75;21.00;;;;;23.19;50.40;101849.34;6278163;22;45376;-86
2021/09/01 09:04:18;;;;;;;;;25.50;22.50;;;;;23.20;50.17;101851.13;6225883;22;47192;-86
2021/09/01 09:07:03;;;;;;;;;32.25;25.50;;;;;23.21;50.45;101846.66;6251472;22;45355;-85
2021/09/01 09:09:37;;;;;;;;;26.75;22.25;;;;;23.23;50.57;101845.69;6252181;22;45280;-85
2021/09/01 09:12:12;;;;;;;;;24.75;21.25;;;;;23.24;50.55;101846.56;6250489;22;45553;-86
2021/09/01 09:14:48;;;;;;;;;24.25;22.00;;;;;23.11;50.00;101828.25;6229646;22;46254;-87
2021/09/01 09:17:41;;;;;;;;;28.25;25.25;;;;;23.19;49.98;101837.81;6228362;22;45410;-85
2021/09/01 09:20:07;;;;;;;;;30.00;24.00;;;;;23.25;50.42;101832.34;6230771;22;45447;-86
2021/09/01 09:22:37;;;;;;;;;26.50;23.50;;;;;23.22;49.95;101827.97;6251069;22;45379;-86
2021/09/01 09:25:09;;;;;;;;;29.75;25.75;;;;;23.29;50.45;101839.34;6251221;22;47544;-86
2021/09/01 09:27:36;;;;;;;;;28.25;28.25;;;;;23.27;50.06;101828.69;6251824;22;45900;-86
2021/09/01 09:30:04;;;;;;;;;23.25;20.75;;;;;23.31;50.43;101827.72;6227081;22;45177;-86
2021/09/01 09:32:29;;;;;;;;;24.50;23.50;;;;;23.35;49.77;101841.81;6225522;22;45526;-87
2021/09/01 09:34:58;;;;;;;;;25.50;24.00;;;;;23.37;50.49;101827.56;6284950;22;45199;-85
2021/09/01 09:37:24;;;;;;;;;29.50;23.50;;;;;23.40;50.12;101826.59;6213538;22;45245;-84
2021/09/01 09:39:51;;;;;;;;;22.50;21.00;;;;;23.39;50.87;101819.53;6232182;22;45386;-93
2021/09/01 09:42:34;;;;;;;;;25.00;23.50;;;;;23.49;51.02;101821.03;6201026;22;45720;-86
2021/09/01 09:45:21;;;;;;;;;22.50;21.75;;;;;23.46;51.12;101809.59;6253365;22;46533;-82
2021/09/01 09:48:01;;;;;;;;;25.50;21.25;;;;;23.47;50.97;101814.88;6232415;22;45188;-86
2021/09/01 09:50:26;;;;;;;;;21.50;20.50;;;;;23.46;51.38;101814.91;6242745;22;45252;-89
2021/09/01 09:52:52;;;;;;;;;32.25;27.50;;;;;23.54;49.79;101813.75;6228269;22;45318;-88
2021/09/01 09:55:21;;;;;;;;;24.00;22.75;;;;;23.55;50.79;101807.56;6201769;22;48132;-84
2021/09/01 09:57:57;;;;;;;;;24.00;21.25;;;;;23.62;51.43;101819.78;6230332;22;45150;-92
2021/09/01 10:00:24;;;;;;;;;27.75;21.75;;;;;23.61;51.04;101804.72;6238439;22;44658;-92
2021/09/01 10:02:49;;;;;;;;;24.00;21.50;;;;;23.73;50.62;101830.19;6231823;22;45523;-86
2021/09/01 10:08:50;;;;;;;;;;;;;;;;;;;;;
2021/09/01 10:11:17;;;;;;;;;22.25;18.50;;;;;23.81;50.81;101821.97;6185064;23;68893;-91
2021/09/01 10:13:44;;;;;;;;;22.75;21.75;;;;;23.78;51.11;101806.03;6230258;22;45512;-83
2021/09/01 10:16:24;;;;;;;;;26.50;23.00;;;;;23.90;50.59;101811.03;6226047;22;45212;-81
2021/09/01 10:19:02;;;;;;;;;24.75;22.75;;;;;23.91;50.62;101818.13;6251330;22;45312;-87
2021/09/01 10:21:29;;;;;;;;;24.25;21.50;;;;;23.91;50.86;101803.00;6227203;22;45291;-87
2021/09/01 10:23:55;;;;;;;;;25.50;24.50;;;;;23.94;50.43;101807.34;6225433;22;45286;-83
2021/09/01 10:26:32;;;;;;;;;23.75;21.00;;;;;23.94;51.01;101804.69;6250748;22;45289;-83
2021/09/01 10:28:59;;;;;;;;;26.00;20.25;;;;;23.95;51.19;101799.28;6250978;22;45249;-85
2021/09/01 10:31:27;;;;;;;;;22.50;20.50;;;;;23.98;50.46;101798.34;6246740;22;45275;-84
2021/09/01 10:34:19;;;;;;;;;25.75;24.00;;;;;23.98;50.68;101809.03;6219634;22;45490;-84
2021/09/01 10:36:49;;;;;;;;;22.50;22.25;;;;;24.01;49.66;101808.06;6174000;22;48029;-83
2021/09/01 10:39:16;;;;;;;;;25.50;23.50;;;;;24.00;50.16;101799.19;6194497;22;45345;-84
2021/09/01 10:41:45;;;;;;;;;25.00;22.25;;;;;23.99;49.59;101794.75;6194370;22;45228;-84
2021/09/01 10:44:13;;;;;;;;;27.00;25.25;;;;;23.99;48.48;101784.09;6194944;22;45317;-83
2021/09/01 10:46:51;;;;;;;;;26.00;22.25;;;;;23.97;48.40;101791.25;6245370;22;48047;-84
2021/09/01 10:49:25;;;;;;;;;22.25;22.25;;;;;23.95;48.65;101788.63;6245805;22;45333;-82
2021/09/01 10:51:56;;;;;;;;;30.00;27.50;;;;;23.95;48.53;101788.63;6247679;22;45222;-83
2021/09/01 10:54:36;;;;;;;;;26.50;24.50;;;;;23.93;48.01;101789.59;6246843;22;45303;-82
2021/09/01 10:57:06;;;;;;;;;20.75;18.25;;;;;23.92;48.51;101772.72;6221628;22;47530;-82
2021/09/01 10:59:38;;;;;;;;;25.50;22.25;;;;;23.90;48.66;101777.25;6195875;22;45447;-84
2021/09/01 11:02:10;;;;;;;;;25.50;21.25;;;;;23.84;47.91;101757.88;6169540;22;45196;-85
2021/09/01 11:04:48;;;;;;;;;22.25;21.00;;;;;23.85;48.70;101775.63;6220583;22;45233;-84
2021/09/01 11:07:25;;;;;;;;;19.00;19.00;;;;;23.93;48.67;101777.16;6220252;22;47255;-82
2021/09/01 11:10:04;;;;;;;;;24.75;19.75;;;;;23.88;48.19;101771.06;6194794;22;45308;-83
2021/09/01 11:12:31;;;;;;;;;23.50;20.75;;;;;23.94;48.26;101770.00;6220975;22;45297;-84